sensor_id;sensor_type;location;lat;lon;timestamp;pressure;altitude;pressure_sealevel;temperature;humidity
6028;BME280;3042;43.194;27.646;2023-07-31T00:01:00;100901.38;;;27.20;100.00
6028;BME280;3042;43.194;27.646;2023-07-31T00:03:28;100901.38;;;27.20;100.00
6028;BME280;3042;43.194;27.646;2023-07-31T00:05:55;100910.16;;;27.23;100.00
6028;BME280;3042;43.194;27.646;2023-07-31T00:08:22;100908.19;;;27.33;100.00
6028;BME280;3042;43.194;27.646;2023-07-31T00:10:51;100857.84;;;26.88;100.00
6028;BME280;3042;43.194;27.646;2023-07-31T00:13:19;100889.19;;;27.09;100.00
6028;BME280;3042;43.194;27.646;2023-07-31T00:15:46;100908.47;;;27.17;100.00
6028;BME280;3042;43.194;27.646;2023-07-31T00:18:13;100916.63;;;27.08;100.00
6028;BME280;3042;43.194;27.646;2023-07-31T00:20:41;100921.16;;;27.03;100.00
6028;BME280;3042;43.194;27.646;2023-07-31T00:23:08;100910.63;;;27.00;100.00
6028;BME280;3042;43.194;27.646;2023-07-31T00:25:35;100905.56;;;26.88;100.00
6028;BME280;3042;43.194;27.646;2023-07-31T00:28:02;100852.22;;;26.60;100.00
6028;BME280;3042;43.194;27.646;2023-07-31T00:30:29;100920.56;;;26.89;100.00
6028;BME280;3042;43.194;27.646;2023-07-31T00:32:56;100887.22;;;26.77;100.00
6028;BME280;3042;43.194;27.646;2023-07-31T00:35:23;100922.19;;;26.96;100.00
6028;BME280;3042;43.194;27.646;2023-07-31T00:37:52;100901.28;;;26.81;100.00
6028;BME280;3042;43.194;27.646;2023-07-31T00:40:18;100914.59;;;26.78;100.00
6028;BME280;3042;43.194;27.646;2023-07-31T00:42:45;100919.97;;;26.74;100.00
6028;BME280;3042;43.194;27.646;2023-07-31T00:45:12;100906.66;;;26.78;100.00
6028;BME280;3042;43.194;27.646;2023-07-31T00:47:39;100910.16;;;26.78;100.00
6028;BME280;3042;43.194;27.646;2023-07-31T00:50:07;100920.69;;;26.83;100.00
6028;BME280;3042;43.194;27.646;2023-07-31T00:52:35;100922.50;;;26.81;100.00
6028;BME280;3042;43.194;27.646;2023-07-31T00:55:05;100923.41;;;26.80;100.00
6028;BME280;3042;43.194;27.646;2023-07-31T00:57:32;100903.41;;;26.62;100.00
6028;BME280;3042;43.194;27.646;2023-07-31T01:00:00;100918.34;;;26.67;100.00
6028;BME280;3042;43.194;27.646;2023-07-31T01:02:27;100864.44;;;26.20;100.00
6028;BME280;3042;43.194;27.646;2023-07-31T01:04:54;100929.19;;;26.55;100.00
6028;BME280;3042;43.194;27.646;2023-07-31T01:07:29;100927.44;;;26.54;100.00
6028;BME280;3042;43.194;27.646;2023-07-31T01:10:04;100931.06;;;26.47;100.00
6028;BME280;3042;43.194;27.646;2023-07-31T01:12:34;100939.94;;;26.46;100.00
6028;BME280;3042;43.194;27.646;2023-07-31T01:15:04;100932.16;;;26.37;100.00
6028;BME280;3042;43.194;27.646;2023-07-31T01:17:31;100899.13;;;26.05;100.00
6028;BME280;3042;43.194;27.646;2023-07-31T01:20:01;100971.78;;;26.43;100.00
6028;BME280;3042;43.194;27.646;2023-07-31T01:22:46;100975.44;;;26.36;100.00
6028;BME280;3042;43.194;27.646;2023-07-31T01:25:29;100961.69;;;26.14;100.00
6028;BME280;3042;43.194;27.646;2023-07-31T01:28:05;100928.53;;;25.89;100.00
6028;BME280;3042;43.194;27.646;2023-07-31T01:30:38;100888.31;;;25.63;100.00
6028;BME280;3042;43.194;27.646;2023-07-31T01:33:07;100944.31;;;25.96;100.00
6028;BME280;3042;43.194;27.646;2023-07-31T01:35:35;100932.88;;;25.94;100.00
6028;BME280;3042;43.194;27.646;2023-07-31T01:38:03;100922.25;;;25.95;100.00
6028;BME280;3042;43.194;27.646;2023-07-31T01:40:31;100923.91;;;26.02;100.00
6028;BME280;3042;43.194;27.646;2023-07-31T01:42:58;100942.38;;;26.07;100.00
6028;BME280;3042;43.194;27.646;2023-07-31T01:45:26;100940.44;;;26.15;100.00
6028;BME280;3042;43.194;27.646;2023-07-31T01:47:53;100935.13;;;26.18;100.00
6028;BME280;3042;43.194;27.646;2023-07-31T01:50:20;100909.00;;;25.97;100.00
6028;BME280;3042;43.194;27.646;2023-07-31T01:52:47;100944.81;;;26.19;100.00
6028;BME280;3042;43.194;27.646;2023-07-31T01:55:14;100922.84;;;26.13;100.00
6028;BME280;3042;43.194;27.646;2023-07-31T01:57:41;100873.81;;;25.88;100.00
6028;BME280;3042;43.194;27.646;2023-07-31T02:00:09;100918.31;;;26.19;100.00
6028;BME280;3042;43.194;27.646;2023-07-31T02:02:37;100865.03;;;25.86;100.00
6028;BME280;3042;43.194;27.646;2023-07-31T02:05:05;100936.81;;;26.22;100.00
6028;BME280;3042;43.194;27.646;2023-07-31T02:07:32;100919.16;;;26.21;100.00
6028;BME280;3042;43.194;27.646;2023-07-31T02:09:59;100904.13;;;26.23;100.00
6028;BME280;3042;43.194;27.646;2023-07-31T02:12:26;100904.19;;;26.19;100.00
6028;BME280;3042;43.194;27.646;2023-07-31T02:14:55;100880.34;;;26.20;100.00
6028;BME280;3042;43.194;27.646;2023-07-31T02:17:22;100900.47;;;26.29;100.00
6028;BME280;3042;43.194;27.646;2023-07-31T02:19:51;100907.31;;;26.42;100.00
6028;BME280;3042;43.194;27.646;2023-07-31T02:22:18;100885.50;;;26.26;100.00
6028;BME280;3042;43.194;27.646;2023-07-31T02:24:45;100918.75;;;26.46;100.00
6028;BME280;3042;43.194;27.646;2023-07-31T02:27:12;100923.91;;;26.52;100.00
6028;BME280;3042;43.194;27.646;2023-07-31T02:29:39;100926.53;;;26.53;100.00
6028;BME280;3042;43.194;27.646;2023-07-31T02:32:06;100928.19;;;26.61;100.00
6028;BME280;3042;43.194;27.646;2023-07-31T02:34:33;100923.75;;;26.61;100.00
6028;BME280;3042;43.194;27.646;2023-07-31T02:37:02;100934.25;;;26.67;100.00
6028;BME280;3042;43.194;27.646;2023-07-31T02:39:29;100939.88;;;26.49;100.00
6028;BME280;3042;43.194;27.646;2023-07-31T02:41:56;100947.81;;;26.49;100.00
6028;BME280;3042;43.194;27.646;2023-07-31T02:44:22;100950.72;;;26.37;100.00
6028;BME280;3042;43.194;27.646;2023-07-31T02:46:49;100963.25;;;26.25;100.00
6028;BME280;3042;43.194;27.646;2023-07-31T02:49:16;100893.66;;;25.60;100.00
6028;BME280;3042;43.194;27.646;2023-07-31T02:51:43;100963.75;;;25.95;100.00
6028;BME280;3042;43.194;27.646;2023-07-31T02:54:12;100944.63;;;25.74;100.00
6028;BME280;3042;43.194;27.646;2023-07-31T02:56:39;100966.50;;;25.88;100.00
6028;BME280;3042;43.194;27.646;2023-07-31T02:59:06;100974.38;;;25.92;100.00
6028;BME280;3042;43.194;27.646;2023-07-31T03:01:32;100971.72;;;25.95;100.00
6028;BME280;3042;43.194;27.646;2023-07-31T03:03:59;100973.44;;;25.97;100.00
6028;BME280;3042;43.194;27.646;2023-07-31T03:06:26;100970.72;;;26.00;100.00
6028;BME280;3042;43.194;27.646;2023-07-31T03:08:53;100970.66;;;26.05;100.00
6028;BME280;3042;43.194;27.646;2023-07-31T03:11:22;100968.00;;;26.06;100.00
6028;BME280;3042;43.194;27.646;2023-07-31T03:13:49;100966.19;;;26.08;100.00
6028;BME280;3042;43.194;27.646;2023-07-31T03:16:16;100971.38;;;26.15;100.00
6028;BME280;3042;43.194;27.646;2023-07-31T03:18:43;100970.34;;;26.23;100.00
6028;BME280;3042;43.194;27.646;2023-07-31T03:21:10;100937.88;;;26.10;100.00
6028;BME280;3042;43.194;27.646;2023-07-31T03:23:36;100972.88;;;26.31;100.00
6028;BME280;3042;43.194;27.646;2023-07-31T03:26:06;100959.44;;;26.42;100.00
6028;BME280;3042;43.194;27.646;2023-07-31T03:28:34;100964.69;;;26.45;100.00
6028;BME280;3042;43.194;27.646;2023-07-31T03:31:01;100963.72;;;26.49;100.00
6028;BME280;3042;43.194;27.646;2023-07-31T03:33:28;100961.00;;;26.52;100.00
6028;BME280;3042;43.194;27.646;2023-07-31T03:35:55;100957.38;;;26.59;100.00
6028;BME280;3042;43.194;27.646;2023-07-31T03:38:23;100946.78;;;26.59;100.00
6028;BME280;3042;43.194;27.646;2023-07-31T03:40:49;100948.38;;;26.69;100.00
6028;BME280;3042;43.194;27.646;2023-07-31T03:43:16;100944.56;;;26.83;100.00
6028;BME280;3042;43.194;27.646;2023-07-31T03:45:45;100944.38;;;26.92;100.00
6028;BME280;3042;43.194;27.646;2023-07-31T03:48:14;100952.13;;;27.03;100.00
6028;BME280;3042;43.194;27.646;2023-07-31T03:50:41;100940.66;;;27.02;100.00
6028;BME280;3042;43.194;27.646;2023-07-31T03:53:08;100948.19;;;27.24;100.00
6028;BME280;3042;43.194;27.646;2023-07-31T03:55:35;100837.06;;;26.66;100.00
6028;BME280;3042;43.194;27.646;2023-07-31T03:58:02;100955.66;;;27.45;100.00
6028;BME280;3042;43.194;27.646;2023-07-31T04:00:30;100945.59;;;27.60;100.00
6028;BME280;3042;43.194;27.646;2023-07-31T04:02:58;100954.09;;;27.75;100.00
6028;BME280;3042;43.194;27.646;2023-07-31T04:05:25;100956.59;;;27.83;100.00
6028;BME280;3042;43.194;27.646;2023-07-31T04:07:52;100959.00;;;27.94;100.00
6028;BME280;3042;43.194;27.646;2023-07-31T04:10:19;100960.41;;;28.09;100.00
6028;BME280;3042;43.194;27.646;2023-07-31T04:12:46;100950.28;;;28.23;100.00
6028;BME280;3042;43.194;27.646;2023-07-31T04:15:13;100952.38;;;28.45;100.00
6028;BME280;3042;43.194;27.646;2023-07-31T04:17:40;100948.38;;;28.64;100.00
6028;BME280;3042;43.194;27.646;2023-07-31T04:20:10;100946.84;;;28.87;100.00
6028;BME280;3042;43.194;27.646;2023-07-31T04:22:37;100949.91;;;29.04;100.00
6028;BME280;3042;43.194;27.646;2023-07-31T04:25:04;100949.66;;;29.13;100.00
6028;BME280;3042;43.194;27.646;2023-07-31T04:27:31;100952.38;;;29.12;100.00
6028;BME280;3042;43.194;27.646;2023-07-31T04:29:58;100948.13;;;29.03;100.00
6028;BME280;3042;43.194;27.646;2023-07-31T04:32:25;100951.03;;;28.95;100.00
6028;BME280;3042;43.194;27.646;2023-07-31T04:34:52;100954.09;;;28.81;100.00
6028;BME280;3042;43.194;27.646;2023-07-31T04:37:21;100713.75;;;27.25;100.00
6028;BME280;3042;43.194;27.646;2023-07-31T04:39:48;100957.91;;;28.71;100.00
6028;BME280;3042;43.194;27.646;2023-07-31T04:42:15;100958.78;;;28.72;100.00
6028;BME280;3042;43.194;27.646;2023-07-31T04:44:42;100964.72;;;28.81;100.00
6028;BME280;3042;43.194;27.646;2023-07-31T04:47:09;100954.69;;;28.91;100.00
6028;BME280;3042;43.194;27.646;2023-07-31T04:49:36;100787.44;;;28.18;100.00
6028;BME280;3042;43.194;27.646;2023-07-31T04:52:03;100963.06;;;29.40;100.00
6028;BME280;3042;43.194;27.646;2023-07-31T04:54:32;100884.03;;;29.12;100.00
6028;BME280;3042;43.194;27.646;2023-07-31T04:56:59;100922.97;;;29.74;100.00
6028;BME280;3042;43.194;27.646;2023-07-31T04:59:26;100799.66;;;29.16;100.00
6028;BME280;3042;43.194;27.646;2023-07-31T05:01:53;100897.59;;;29.89;100.00
6028;BME280;3042;43.194;27.646;2023-07-31T05:04:20;100902.38;;;30.33;100.00
6028;BME280;3042;43.194;27.646;2023-07-31T05:06:47;100968.22;;;31.06;100.00
6028;BME280;3042;43.194;27.646;2023-07-31T05:09:14;100967.16;;;31.33;100.00
6028;BME280;3042;43.194;27.646;2023-07-31T05:11:44;100976.00;;;31.36;100.00
6028;BME280;3042;43.194;27.646;2023-07-31T05:14:11;100754.53;;;29.64;100.00
6028;BME280;3042;43.194;27.646;2023-07-31T05:16:38;100980.53;;;31.10;100.00
6028;BME280;3042;43.194;27.646;2023-07-31T05:19:05;100913.66;;;30.89;100.00
6028;BME280;3042;43.194;27.646;2023-07-31T05:21:32;100982.16;;;31.14;100.00
6028;BME280;3042;43.194;27.646;2023-07-31T05:23:59;100980.88;;;31.24;100.00
6028;BME280;3042;43.194;27.646;2023-07-31T05:26:26;100974.84;;;31.43;100.00
6028;BME280;3042;43.194;27.646;2023-07-31T05:28:54;100900.38;;;31.33;100.00
6028;BME280;3042;43.194;27.646;2023-07-31T05:31:21;100979.03;;;31.50;100.00
6028;BME280;3042;43.194;27.646;2023-07-31T05:33:49;100865.03;;;30.81;100.00
6028;BME280;3042;43.194;27.646;2023-07-31T05:36:17;100900.44;;;31.32;100.00
6028;BME280;3042;43.194;27.646;2023-07-31T05:38:44;100974.94;;;32.07;100.00
6028;BME280;3042;43.194;27.646;2023-07-31T05:41:11;100970.22;;;32.14;100.00
6028;BME280;3042;43.194;27.646;2023-07-31T05:43:38;100820.25;;;31.78;100.00
6028;BME280;3042;43.194;27.646;2023-07-31T05:46:07;100909.25;;;32.63;100.00
6028;BME280;3042;43.194;27.646;2023-07-31T05:48:34;100955.97;;;33.16;100.00
6028;BME280;3042;43.194;27.646;2023-07-31T05:51:02;100882.50;;;32.82;100.00
6028;BME280;3042;43.194;27.646;2023-07-31T05:53:29;100967.69;;;33.51;100.00
6028;BME280;3042;43.194;27.646;2023-07-31T05:55:56;100804.97;;;32.62;100.00
6028;BME280;3042;43.194;27.646;2023-07-31T05:58:23;100956.47;;;33.62;100.00
6028;BME280;3042;43.194;27.646;2023-07-31T06:00:50;100966.47;;;33.95;100.00
6028;BME280;3042;43.194;27.646;2023-07-31T06:03:18;100891.03;;;33.66;100.00
6028;BME280;3042;43.194;27.646;2023-07-31T06:05:45;100972.84;;;34.11;100.00
6028;BME280;3042;43.194;27.646;2023-07-31T06:08:12;100905.06;;;33.71;100.00
6028;BME280;3042;43.194;27.646;2023-07-31T06:10:39;100971.38;;;34.04;100.00
6028;BME280;3042;43.194;27.646;2023-07-31T06:13:06;100961.25;;;33.74;100.00
6028;BME280;3042;43.194;27.646;2023-07-31T06:15:33;100961.88;;;33.79;100.00
6028;BME280;3042;43.194;27.646;2023-07-31T06:18:00;100989.31;;;33.67;100.00
6028;BME280;3042;43.194;27.646;2023-07-31T06:20:30;100985.50;;;33.71;100.00
6028;BME280;3042;43.194;27.646;2023-07-31T06:22:57;100807.97;;;32.73;100.00
6028;BME280;3042;43.194;27.646;2023-07-31T06:25:24;100984.19;;;33.80;100.00
6028;BME280;3042;43.194;27.646;2023-07-31T06:27:51;100989.97;;;33.90;100.00
6028;BME280;3042;43.194;27.646;2023-07-31T06:30:17;100986.88;;;33.80;100.00
6028;BME280;3042;43.194;27.646;2023-07-31T06:32:44;100999.56;;;33.57;100.00
6028;BME280;3042;43.194;27.646;2023-07-31T06:35:11;100983.00;;;33.85;100.00
6028;BME280;3042;43.194;27.646;2023-07-31T06:37:40;100969.41;;;33.52;100.00
6028;BME280;3042;43.194;27.646;2023-07-31T06:40:10;100985.59;;;32.92;100.00
6028;BME280;3042;43.194;27.646;2023-07-31T06:42:37;101007.94;;;32.71;100.00
6028;BME280;3042;43.194;27.646;2023-07-31T06:45:05;100993.59;;;33.13;100.00
6028;BME280;3042;43.194;27.646;2023-07-31T06:47:32;100981.75;;;33.75;100.00
6028;BME280;3042;43.194;27.646;2023-07-31T06:49:59;100975.06;;;33.84;100.00
6028;BME280;3042;43.194;27.646;2023-07-31T06:52:26;100976.09;;;33.99;100.00
6028;BME280;3042;43.194;27.646;2023-07-31T06:55:02;100959.41;;;34.46;100.00
6028;BME280;3042;43.194;27.646;2023-07-31T06:57:30;100966.19;;;34.53;100.00
6028;BME280;3042;43.194;27.646;2023-07-31T06:59:57;100959.09;;;34.70;100.00
6028;BME280;3042;43.194;27.646;2023-07-31T07:02:24;100961.16;;;34.82;100.00
6028;BME280;3042;43.194;27.646;2023-07-31T07:04:51;100956.84;;;35.13;100.00
6028;BME280;3042;43.194;27.646;2023-07-31T07:07:18;100949.81;;;35.26;100.00
6028;BME280;3042;43.194;27.646;2023-07-31T07:09:45;100955.13;;;35.43;100.00
6028;BME280;3042;43.194;27.646;2023-07-31T07:12:13;100842.28;;;34.94;100.00
6028;BME280;3042;43.194;27.646;2023-07-31T07:14:40;100955.22;;;35.74;100.00
6028;BME280;3042;43.194;27.646;2023-07-31T07:17:07;100951.09;;;35.82;100.00
6028;BME280;3042;43.194;27.646;2023-07-31T07:19:34;100942.91;;;36.00;100.00
6028;BME280;3042;43.194;27.646;2023-07-31T07:22:01;100937.34;;;36.19;100.00
6028;BME280;3042;43.194;27.646;2023-07-31T07:24:28;100934.66;;;36.33;100.00
6028;BME280;3042;43.194;27.646;2023-07-31T07:26:55;100946.22;;;36.49;100.00
6028;BME280;3042;43.194;27.646;2023-07-31T07:29:24;100939.06;;;36.64;100.00
6028;BME280;3042;43.194;27.646;2023-07-31T07:31:51;100933.22;;;36.72;100.00
6028;BME280;3042;43.194;27.646;2023-07-31T07:34:17;100941.59;;;36.67;100.00
6028;BME280;3042;43.194;27.646;2023-07-31T07:36:44;100933.88;;;36.61;100.00
6028;BME280;3042;43.194;27.646;2023-07-31T07:39:11;100952.31;;;36.39;100.00
6028;BME280;3042;43.194;27.646;2023-07-31T07:41:38;100942.97;;;36.44;100.00
6028;BME280;3042;43.194;27.646;2023-07-31T07:44:05;100942.69;;;36.49;100.00
6028;BME280;3042;43.194;27.646;2023-07-31T07:46:34;100803.22;;;35.36;100.00
6028;BME280;3042;43.194;27.646;2023-07-31T07:49:01;100972.59;;;35.98;100.00
6028;BME280;3042;43.194;27.646;2023-07-31T07:51:28;100980.50;;;35.22;100.00
6028;BME280;3042;43.194;27.646;2023-07-31T07:53:56;100970.00;;;35.17;100.00
6028;BME280;3042;43.194;27.646;2023-07-31T07:56:24;100983.94;;;34.91;100.00
6028;BME280;3042;43.194;27.646;2023-07-31T07:58:52;100982.75;;;34.96;100.00
6028;BME280;3042;43.194;27.646;2023-07-31T08:01:19;100846.06;;;34.41;100.00
6028;BME280;3042;43.194;27.646;2023-07-31T08:03:47;100970.97;;;35.32;100.00
6028;BME280;3042;43.194;27.646;2023-07-31T08:06:15;100877.22;;;34.94;100.00
6028;BME280;3042;43.194;27.646;2023-07-31T08:08:42;100927.69;;;35.21;100.00
6028;BME280;3042;43.194;27.646;2023-07-31T08:11:09;100792.13;;;34.30;100.00
6028;BME280;3042;43.194;27.646;2023-07-31T08:13:36;100961.69;;;35.54;100.00
6028;BME280;3042;43.194;27.646;2023-07-31T08:16:03;100958.94;;;35.71;100.00
6028;BME280;3042;43.194;27.646;2023-07-31T08:18:30;100880.97;;;35.39;100.00
6028;BME280;3042;43.194;27.646;2023-07-31T08:20:59;100962.28;;;35.90;100.00
6028;BME280;3042;43.194;27.646;2023-07-31T08:23:26;100958.78;;;36.20;100.00
6028;BME280;3042;43.194;27.646;2023-07-31T08:25:53;100963.91;;;36.09;100.00
6028;BME280;3042;43.194;27.646;2023-07-31T08:28:20;100977.72;;;36.03;100.00
6028;BME280;3042;43.194;27.646;2023-07-31T08:30:47;100977.78;;;36.17;100.00
6028;BME280;3042;43.194;27.646;2023-07-31T08:33:15;100985.72;;;35.88;100.00
6028;BME280;3042;43.194;27.646;2023-07-31T08:35:42;100883.53;;;34.93;100.00
6028;BME280;3042;43.194;27.646;2023-07-31T08:38:12;100983.22;;;35.85;100.00
6028;BME280;3042;43.194;27.646;2023-07-31T08:40:39;100902.38;;;35.57;100.00
6028;BME280;3042;43.194;27.646;2023-07-31T08:43:07;100987.88;;;35.98;100.00
6028;BME280;3042;43.194;27.646;2023-07-31T08:45:34;100982.31;;;36.01;100.00
6028;BME280;3042;43.194;27.646;2023-07-31T08:48:01;100866.22;;;35.62;100.00
6028;BME280;3042;43.194;27.646;2023-07-31T08:50:28;100989.56;;;36.30;100.00
6028;BME280;3042;43.194;27.646;2023-07-31T08:52:56;100902.91;;;35.47;100.00
6028;BME280;3042;43.194;27.646;2023-07-31T08:55:24;101000.88;;;36.05;100.00
6028;BME280;3042;43.194;27.646;2023-07-31T08:57:52;100907.50;;;35.61;100.00
6028;BME280;3042;43.194;27.646;2023-07-31T09:00:20;100993.38;;;36.26;100.00
6028;BME280;3042;43.194;27.646;2023-07-31T09:02:56;100829.66;;;34.96;100.00
6028;BME280;3042;43.194;27.646;2023-07-31T09:05:26;100999.31;;;36.17;100.00
6028;BME280;3042;43.194;27.646;2023-07-31T09:07:55;100937.41;;;35.55;100.00
6028;BME280;3042;43.194;27.646;2023-07-31T09:10:24;101018.78;;;35.90;100.00
6028;BME280;3042;43.194;27.646;2023-07-31T09:12:52;101020.69;;;35.88;100.00
6028;BME280;3042;43.194;27.646;2023-07-31T09:15:19;101026.94;;;35.89;100.00
6028;BME280;3042;43.194;27.646;2023-07-31T09:17:46;101014.78;;;35.98;100.00
6028;BME280;3042;43.194;27.646;2023-07-31T09:20:15;101027.97;;;35.70;100.00
6028;BME280;3042;43.194;27.646;2023-07-31T09:22:43;100889.69;;;34.95;100.00
6028;BME280;3042;43.194;27.646;2023-07-31T09:25:17;101025.03;;;35.75;100.00
6028;BME280;3042;43.194;27.646;2023-07-31T09:27:51;100942.78;;;35.39;100.00
6028;BME280;3042;43.194;27.646;2023-07-31T09:30:18;101027.47;;;35.80;100.00
6028;BME280;3042;43.194;27.646;2023-07-31T09:32:46;101019.56;;;35.92;100.00
6028;BME280;3042;43.194;27.646;2023-07-31T09:35:18;101010.50;;;36.09;100.00
6028;BME280;3042;43.194;27.646;2023-07-31T09:37:49;101022.06;;;35.96;100.00
6028;BME280;3042;43.194;27.646;2023-07-31T09:40:30;100888.75;;;34.96;100.00
6028;BME280;3042;43.194;27.646;2023-07-31T09:43:00;101031.78;;;35.82;100.00
6028;BME280;3042;43.194;27.646;2023-07-31T09:45:28;101023.91;;;35.79;100.00
6028;BME280;3042;43.194;27.646;2023-07-31T09:47:56;101036.63;;;35.60;100.00
6028;BME280;3042;43.194;27.646;2023-07-31T09:50:24;101035.41;;;35.49;100.00
6028;BME280;3042;43.194;27.646;2023-07-31T09:52:52;101032.97;;;35.29;100.00
6028;BME280;3042;43.194;27.646;2023-07-31T09:55:19;100975.63;;;34.95;100.00
6028;BME280;3042;43.194;27.646;2023-07-31T09:57:47;101041.41;;;35.55;100.00
6028;BME280;3042;43.194;27.646;2023-07-31T10:00:17;101044.41;;;35.33;100.00
6028;BME280;3042;43.194;27.646;2023-07-31T10:02:47;101038.16;;;35.32;100.00
6028;BME280;3042;43.194;27.646;2023-07-31T10:05:15;101040.94;;;35.30;100.00
6028;BME280;3042;43.194;27.646;2023-07-31T10:07:45;101043.34;;;35.19;100.00
6028;BME280;3042;43.194;27.646;2023-07-31T10:10:20;101043.25;;;35.21;100.00
6028;BME280;3042;43.194;27.646;2023-07-31T10:12:48;100942.03;;;34.53;100.00
6028;BME280;3042;43.194;27.646;2023-07-31T10:15:18;101043.09;;;35.06;100.00
6028;BME280;3042;43.194;27.646;2023-07-31T10:17:47;101022.44;;;34.91;100.00
6028;BME280;3042;43.194;27.646;2023-07-31T10:20:15;101038.75;;;35.04;100.00
6028;BME280;3042;43.194;27.646;2023-07-31T10:22:43;101034.91;;;34.92;100.00
6028;BME280;3042;43.194;27.646;2023-07-31T10:25:12;101030.44;;;35.08;100.00
6028;BME280;3042;43.194;27.646;2023-07-31T10:27:39;101031.56;;;35.04;100.00
6028;BME280;3042;43.194;27.646;2023-07-31T10:30:08;101036.31;;;34.99;100.00
6028;BME280;3042;43.194;27.646;2023-07-31T10:32:38;101047.41;;;34.76;100.00
6028;BME280;3042;43.194;27.646;2023-07-31T10:35:08;101052.47;;;34.64;100.00
6028;BME280;3042;43.194;27.646;2023-07-31T10:37:40;101051.28;;;34.70;100.00
6028;BME280;3042;43.194;27.646;2023-07-31T10:40:11;101046.78;;;34.71;100.00
6028;BME280;3042;43.194;27.646;2023-07-31T10:42:45;101053.41;;;34.81;100.00
6028;BME280;3042;43.194;27.646;2023-07-31T10:45:24;101030.34;;;34.77;100.00
6028;BME280;3042;43.194;27.646;2023-07-31T10:48:00;101018.53;;;34.63;100.00
6028;BME280;3042;43.194;27.646;2023-07-31T10:50:28;101024.91;;;34.61;100.00
6028;BME280;3042;43.194;27.646;2023-07-31T10:52:58;101016.59;;;34.31;100.00
6028;BME280;3042;43.194;27.646;2023-07-31T10:55:28;101040.06;;;34.62;100.00
6028;BME280;3042;43.194;27.646;2023-07-31T10:57:56;100936.22;;;33.93;100.00
6028;BME280;3042;43.194;27.646;2023-07-31T11:00:26;101052.97;;;34.36;100.00
6028;BME280;3042;43.194;27.646;2023-07-31T11:03:00;101025.91;;;34.04;100.00
6028;BME280;3042;43.194;27.646;2023-07-31T11:05:47;101029.97;;;34.13;100.00
6028;BME280;3042;43.194;27.646;2023-07-31T11:08:16;101041.28;;;34.01;100.00
6028;BME280;3042;43.194;27.646;2023-07-31T11:10:45;101049.28;;;33.64;100.00
6028;BME280;3042;43.194;27.646;2023-07-31T11:13:13;101041.16;;;33.66;100.00
6028;BME280;3042;43.194;27.646;2023-07-31T11:15:40;101037.13;;;33.76;100.00
6028;BME280;3042;43.194;27.646;2023-07-31T11:18:09;101039.34;;;33.67;100.00
6028;BME280;3042;43.194;27.646;2023-07-31T11:20:38;101037.91;;;33.59;100.00
6028;BME280;3042;43.194;27.646;2023-07-31T11:23:07;101045.41;;;33.51;100.00
6028;BME280;3042;43.194;27.646;2023-07-31T11:25:35;101057.34;;;33.25;100.00
6028;BME280;3042;43.194;27.646;2023-07-31T11:28:04;101031.59;;;33.41;100.00
6028;BME280;3042;43.194;27.646;2023-07-31T11:30:32;101027.78;;;33.46;100.00
6028;BME280;3042;43.194;27.646;2023-07-31T11:33:00;101030.88;;;33.57;100.00
6028;BME280;3042;43.194;27.646;2023-07-31T11:35:30;101021.75;;;33.61;100.00
6028;BME280;3042;43.194;27.646;2023-07-31T11:37:58;101020.75;;;33.63;100.00
6028;BME280;3042;43.194;27.646;2023-07-31T11:40:25;101002.91;;;33.43;100.00
6028;BME280;3042;43.194;27.646;2023-07-31T11:42:56;100879.44;;;32.71;100.00
6028;BME280;3042;43.194;27.646;2023-07-31T11:45:25;101012.13;;;33.57;100.00
6028;BME280;3042;43.194;27.646;2023-07-31T11:47:54;101004.50;;;33.67;100.00
6028;BME280;3042;43.194;27.646;2023-07-31T11:50:22;101007.56;;;33.59;100.00
6028;BME280;3042;43.194;27.646;2023-07-31T11:52:53;101003.63;;;33.66;100.00
6028;BME280;3042;43.194;27.646;2023-07-31T11:55:21;101014.28;;;33.49;100.00
6028;BME280;3042;43.194;27.646;2023-07-31T11:57:49;101012.03;;;33.39;100.00
6028;BME280;3042;43.194;27.646;2023-07-31T12:00:17;100941.09;;;32.69;100.00
6028;BME280;3042;43.194;27.646;2023-07-31T12:02:44;101019.16;;;33.20;100.00
6028;BME280;3042;43.194;27.646;2023-07-31T12:05:12;101006.06;;;33.33;100.00
6028;BME280;3042;43.194;27.646;2023-07-31T12:07:44;101021.97;;;33.17;100.00
6028;BME280;3042;43.194;27.646;2023-07-31T12:10:23;101008.31;;;33.23;100.00
6028;BME280;3042;43.194;27.646;2023-07-31T12:12:56;101001.19;;;33.22;100.00
6028;BME280;3042;43.194;27.646;2023-07-31T12:15:29;101018.22;;;33.21;100.00
6028;BME280;3042;43.194;27.646;2023-07-31T12:17:57;101000.56;;;33.17;100.00
6028;BME280;3042;43.194;27.646;2023-07-31T12:20:24;101015.56;;;33.21;100.00
6028;BME280;3042;43.194;27.646;2023-07-31T12:22:51;101001.09;;;33.25;100.00
6028;BME280;3042;43.194;27.646;2023-07-31T12:25:20;100951.03;;;33.07;100.00
6028;BME280;3042;43.194;27.646;2023-07-31T12:27:47;100991.88;;;33.31;100.00
6028;BME280;3042;43.194;27.646;2023-07-31T12:30:26;100992.47;;;33.37;100.00
6028;BME280;3042;43.194;27.646;2023-07-31T12:32:53;100990.44;;;33.24;100.00
6028;BME280;3042;43.194;27.646;2023-07-31T12:35:20;100988.50;;;33.27;100.00
6028;BME280;3042;43.194;27.646;2023-07-31T12:37:47;100993.16;;;33.22;100.00
6028;BME280;3042;43.194;27.646;2023-07-31T12:40:14;100981.66;;;33.20;100.00
6028;BME280;3042;43.194;27.646;2023-07-31T12:42:43;100990.59;;;33.20;100.00
6028;BME280;3042;43.194;27.646;2023-07-31T12:45:10;100919.28;;;32.78;100.00
6028;BME280;3042;43.194;27.646;2023-07-31T12:47:37;100990.00;;;33.14;100.00
6028;BME280;3042;43.194;27.646;2023-07-31T12:50:05;100971.72;;;33.22;100.00
6028;BME280;3042;43.194;27.646;2023-07-31T12:52:32;100970.81;;;33.23;100.00
6028;BME280;3042;43.194;27.646;2023-07-31T12:54:59;100978.53;;;33.29;100.00